Time;durP1;ratioP1;P1;durP2;ratioP2;P2;SDS_P1;SDS_P2;PMS_P1;PMS_P2;Temp;Humidity;BMP_temperature;BMP_pressure;BME280_temperature;BME280_humidity;BME280_pressure;Samples;Min_cycle;Max_cycle;Signal;HPM_P1;HPM_P2
2021/03/20 00:02:18;;;;;;;438.70;75.80;;;;;;;;;;5053583;28;20207;-73
2021/03/20 00:04:44;;;;;;;459.47;94.40;;;;;;;;;;5072020;28;20394;-73
2021/03/20 00:07:10;;;;;;;447.23;84.10;;;;;;;;;;5053981;28;20966;-72
2021/03/20 00:09:36;;;;;;;452.92;79.03;;;;;;;;;;5072031;28;20413;-73
2021/03/20 00:12:03;;;;;;;463.58;81.18;;;;;;;;;;5071511;28;20167;-73
2021/03/20 00:14:30;;;;;;;435.58;75.28;;;;;;;;;;5071661;28;20217;-71
2021/03/20 00:16:56;;;;;;;450.55;81.63;;;;;;;;;;5071885;28;20233;-73
2021/03/20 00:19:22;;;;;;;450.35;76.70;;;;;;;;;;5053818;28;20521;-71
2021/03/20 00:21:49;;;;;;;456.90;86.53;;;;;;;;;;5071562;28;20249;-71
2021/03/20 00:24:15;;;;;;;452.25;84.68;;;;;;;;;;5071843;28;20694;-71
2021/03/20 00:26:41;;;;;;;446.42;79.45;;;;;;;;;;5059681;28;20184;-72
2021/03/20 00:29:08;;;;;;;448.92;80.90;;;;;;;;;;5052096;28;20228;-72
2021/03/20 00:31:34;;;;;;;454.67;78.72;;;;;;;;;;5051576;28;20168;-72
2021/03/20 00:34:00;;;;;;;453.92;80.50;;;;;;;;;;5032620;28;20636;-72
2021/03/20 00:36:26;;;;;;;464.43;82.60;;;;;;;;;;5039849;28;20204;-71
2021/03/20 00:38:51;;;;;;;465.90;81.40;;;;;;;;;;5064351;28;20452;-71
2021/03/20 00:41:17;;;;;;;456.80;83.57;;;;;;;;;;5060833;28;20264;-74
2021/03/20 00:43:43;;;;;;;468.53;80.97;;;;;;;;;;5071573;28;20406;-73
2021/03/20 00:46:10;;;;;;;470.23;87.70;;;;;;;;;;5072619;28;20858;-73
2021/03/20 00:48:38;;;;;;;470.77;86.35;;;;;;;;;;5079795;28;20449;-75
2021/03/20 00:51:04;;;;;;;458.88;87.00;;;;;;;;;;5082986;28;20175;-75
2021/03/20 00:53:31;;;;;;;462.05;84.88;;;;;;;;;;5083146;28;20160;-74
2021/03/20 00:55:57;;;;;;;461.90;85.72;;;;;;;;;;5086383;28;20221;-73
2021/03/20 00:58:23;;;;;;;455.52;85.30;;;;;;;;;;5068860;28;20190;-74
2021/03/20 01:00:50;;;;;;;464.13;81.30;;;;;;;;;;5085589;28;20171;-73
2021/03/20 01:03:16;;;;;;;462.08;80.20;;;;;;;;;;5087421;28;20432;-73
2021/03/20 01:05:42;;;;;;;467.40;83.10;;;;;;;;;;5087364;28;20187;-73
2021/03/20 01:08:08;;;;;;;467.92;82.70;;;;;;;;;;5085629;28;20199;-73
2021/03/20 01:10:37;;;;;;;469.17;81.70;;;;;;;;;;5083172;28;20235;-73
2021/03/20 01:13:03;;;;;;;462.75;81.43;;;;;;;;;;5083150;28;20713;-73
2021/03/20 01:15:29;;;;;;;461.80;81.03;;;;;;;;;;5082900;28;20196;-73
2021/03/20 01:17:55;;;;;;;455.70;77.87;;;;;;;;;;5082338;28;20194;-71
2021/03/20 01:20:21;;;;;;;457.97;81.50;;;;;;;;;;5083006;28;20394;-73
2021/03/20 01:22:47;;;;;;;456.15;80.93;;;;;;;;;;5084849;28;20406;-74
2021/03/20 01:25:13;;;;;;;456.77;80.07;;;;;;;;;;5084295;28;20665;-73
2021/03/20 01:27:39;;;;;;;456.63;77.75;;;;;;;;;;5083660;28;20457;-74
2021/03/20 01:30:09;;;;;;;455.75;81.18;;;;;;;;;;5065164;28;20169;-70
2021/03/20 01:32:35;;;;;;;460.60;78.47;;;;;;;;;;5079522;28;20378;-71
2021/03/20 01:37:35;;;;;;;455.55;79.90;;;;;;;;;;5104253;22;20268;-69
2021/03/20 01:40:02;;;;;;;461.88;81.50;;;;;;;;;;5081153;28;20182;-68
2021/03/20 01:42:28;;;;;;;464.85;86.88;;;;;;;;;;5083301;28;20163;-69
2021/03/20 01:45:09;;;;;;;459.67;79.47;;;;;;;;;;5077369;28;20197;-69
2021/03/20 01:47:39;;;;;;;465.40;88.65;;;;;;;;;;5091435;28;20448;-69
2021/03/20 01:50:06;;;;;;;458.50;80.47;;;;;;;;;;5084894;28;20585;-69
2021/03/20 01:52:35;;;;;;;464.27;85.88;;;;;;;;;;5093427;28;20538;-69
2021/03/20 01:55:09;;;;;;;472.20;84.30;;;;;;;;;;5093413;28;20186;-69
2021/03/20 01:57:38;;;;;;;452.35;92.07;;;;;;;;;;5093503;28;20193;-68
2021/03/20 02:00:11;;;;;;;458.73;81.20;;;;;;;;;;5093242;28;20195;-68
2021/03/20 02:02:37;;;;;;;454.27;77.85;;;;;;;;;;5093071;28;20163;-69
2021/03/20 02:05:04;;;;;;;457.70;79.43;;;;;;;;;;5073546;28;20244;-68
2021/03/20 02:07:30;;;;;;;456.40;97.30;;;;;;;;;;5073081;28;20191;-69
2021/03/20 02:09:56;;;;;;;450.70;90.43;;;;;;;;;;5087172;28;20166;-69
2021/03/20 02:12:33;;;;;;;448.27;83.80;;;;;;;;;;5084652;28;20393;-69
2021/03/20 02:14:59;;;;;;;447.25;80.22;;;;;;;;;;5092761;28;20173;-68
2021/03/20 02:17:28;;;;;;;451.90;83.87;;;;;;;;;;5092674;28;20265;-69
2021/03/20 02:20:06;;;;;;;452.15;81.78;;;;;;;;;;5092899;28;20829;-69
2021/03/20 02:22:52;;;;;;;454.48;81.60;;;;;;;;;;5089265;28;20526;-69
2021/03/20 02:25:34;;;;;;;457.65;83.75;;;;;;;;;;5072819;28;20175;-69
2021/03/20 02:28:00;;;;;;;458.77;82.05;;;;;;;;;;5085825;28;20561;-70
2021/03/20 02:31:04;;;;;;;460.07;81.97;;;;;;;;;;5084801;28;20173;-69
2021/03/20 02:33:34;;;;;;;457.95;80.32;;;;;;;;;;5010451;28;21159;-69
2021/03/20 02:36:19;;;;;;;457.67;80.07;;;;;;;;;;5002106;28;20616;-69
2021/03/20 02:38:47;;;;;;;458.73;81.90;;;;;;;;;;5058097;28;20792;-68
2021/03/20 02:41:29;;;;;;;461.00;84.40;;;;;;;;;;5086352;28;20658;-69
2021/03/20 02:44:05;;;;;;;459.25;80.80;;;;;;;;;;5088534;28;20681;-70
2021/03/20 02:46:37;;;;;;;456.90;82.32;;;;;;;;;;5092236;28;20187;-69
2021/03/20 02:49:06;;;;;;;460.92;82.38;;;;;;;;;;5083803;28;20335;-69
2021/03/20 02:51:47;;;;;;;459.25;82.88;;;;;;;;;;5091880;28;20536;-69
2021/03/20 02:54:17;;;;;;;459.13;82.97;;;;;;;;;;5092142;28;20594;-69
2021/03/20 02:56:54;;;;;;;456.90;84.03;;;;;;;;;;5085664;28;20195;-69
2021/03/20 02:59:23;;;;;;;459.27;80.68;;;;;;;;;;5091764;28;20171;-69
2021/03/20 03:01:52;;;;;;;456.85;80.85;;;;;;;;;;5091755;28;20190;-69
2021/03/20 03:04:22;;;;;;;461.25;81.88;;;;;;;;;;5091878;28;20189;-69
2021/03/20 03:06:49;;;;;;;459.48;79.97;;;;;;;;;;5091855;28;20281;-69
2021/03/20 03:09:19;;;;;;;459.35;81.60;;;;;;;;;;5091477;28;20187;-69
2021/03/20 03:11:49;;;;;;;457.15;80.68;;;;;;;;;;5091155;28;20159;-69
2021/03/20 03:14:18;;;;;;;460.38;81.88;;;;;;;;;;5092069;28;20265;-69
2021/03/20 03:16:46;;;;;;;457.52;81.47;;;;;;;;;;5091889;28;20225;-69
2021/03/20 03:19:20;;;;;;;457.05;82.07;;;;;;;;;;5091145;28;20167;-69
2021/03/20 03:21:48;;;;;;;459.30;81.45;;;;;;;;;;5091320;28;20174;-69
2021/03/20 03:24:16;;;;;;;455.88;81.90;;;;;;;;;;5092071;28;20178;-68
2021/03/20 03:26:43;;;;;;;458.95;81.47;;;;;;;;;;5079417;28;20191;-69
2021/03/20 03:29:15;;;;;;;455.88;79.22;;;;;;;;;;5071510;28;20198;-68
2021/03/20 03:31:47;;;;;;;456.73;81.00;;;;;;;;;;5080664;28;20171;-68
2021/03/20 03:34:25;;;;;;;459.20;79.85;;;;;;;;;;5090808;28;20171;-70
2021/03/20 03:37:09;;;;;;;457.90;81.25;;;;;;;;;;5080000;28;20210;-69
2021/03/20 03:39:42;;;;;;;456.90;79.07;;;;;;;;;;5088621;28;20171;-69
2021/03/20 03:42:12;;;;;;;455.30;80.07;;;;;;;;;;5080725;28;20164;-69
2021/03/20 03:44:41;;;;;;;460.92;82.13;;;;;;;;;;5085714;28;20539;-69
2021/03/20 03:47:08;;;;;;;460.83;82.55;;;;;;;;;;5071327;28;20309;-70
2021/03/20 03:49:33;;;;;;;460.55;81.63;;;;;;;;;;5091489;28;20540;-68
2021/03/20 03:51:59;;;;;;;459.30;81.83;;;;;;;;;;5078217;28;20202;-70
2021/03/20 03:54:25;;;;;;;460.43;81.57;;;;;;;;;;5084009;28;20402;-70
2021/03/20 03:56:57;;;;;;;460.40;82.47;;;;;;;;;;5081039;28;20422;-68
2021/03/20 03:59:36;;;;;;;459.60;80.88;;;;;;;;;;5070893;28;20394;-70
2021/03/20 04:02:14;;;;;;;461.83;81.43;;;;;;;;;;5070723;28;20167;-70
2021/03/20 04:04:40;;;;;;;457.80;78.53;;;;;;;;;;5070895;28;20166;-68
2021/03/20 04:07:12;;;;;;;459.70;80.87;;;;;;;;;;5053178;28;20275;-68
2021/03/20 04:09:50;;;;;;;459.83;82.00;;;;;;;;;;5070954;28;20541;-66
2021/03/20 04:12:29;;;;;;;462.85;81.18;;;;;;;;;;5071199;28;20500;-68
2021/03/20 04:15:13;;;;;;;461.40;81.32;;;;;;;;;;5070906;28;20160;-68
2021/03/20 04:17:49;;;;;;;458.80;80.15;;;;;;;;;;5071157;28;20167;-69
2021/03/20 04:20:20;;;;;;;460.27;81.80;;;;;;;;;;5070763;28;20696;-69
2021/03/20 04:23:01;;;;;;;459.10;82.72;;;;;;;;;;5070547;28;20201;-68
2021/03/20 04:25:47;;;;;;;458.88;82.18;;;;;;;;;;5072514;28;20160;-69
2021/03/20 04:28:13;;;;;;;458.08;80.72;;;;;;;;;;5076759;28;20191;-69
2021/03/20 04:30:39;;;;;;;461.53;81.60;;;;;;;;;;5093664;28;20681;-70
2021/03/20 04:33:11;;;;;;;462.05;81.18;;;;;;;;;;5094646;28;20818;-69
2021/03/20 04:35:43;;;;;;;462.52;82.00;;;;;;;;;;5089727;28;20198;-70
2021/03/20 04:38:10;;;;;;;461.10;80.80;;;;;;;;;;5087403;28;20224;-70
2021/03/20 04:40:44;;;;;;;459.45;79.70;;;;;;;;;;5086230;28;20256;-69
2021/03/20 04:43:11;;;;;;;460.67;82.85;;;;;;;;;;5068194;28;20207;-69
2021/03/20 04:45:39;;;;;;;465.48;82.00;;;;;;;;;;5089419;28;20202;-69
2021/03/20 04:48:15;;;;;;;463.90;81.07;;;;;;;;;;5092247;28;20244;-69
2021/03/20 04:50:42;;;;;;;458.88;80.95;;;;;;;;;;5094595;28;20183;-70
2021/03/20 04:53:08;;;;;;;460.80;80.47;;;;;;;;;;5094315;28;20225;-70
2021/03/20 04:55:34;;;;;;;459.90;80.47;;;;;;;;;;5071180;28;20291;-69
2021/03/20 04:58:11;;;;;;;461.38;80.97;;;;;;;;;;5082200;28;20829;-70
2021/03/20 05:00:41;;;;;;;462.52;81.75;;;;;;;;;;5086053;28;20179;-69
2021/03/20 05:03:20;;;;;;;463.58;85.43;;;;;;;;;;5083515;28;20173;-69
2021/03/20 05:05:50;;;;;;;461.73;81.35;;;;;;;;;;5087442;28;20223;-70
2021/03/20 05:08:19;;;;;;;459.70;81.70;;;;;;;;;;5083727;28;20278;-69
2021/03/20 05:10:50;;;;;;;463.80;82.57;;;;;;;;;;5083117;28;20683;-69
2021/03/20 05:13:27;;;;;;;460.48;81.20;;;;;;;;;;5082683;28;20568;-69
2021/03/20 05:16:00;;;;;;;464.85;83.00;;;;;;;;;;5082374;28;20599;-69
2021/03/20 05:18:26;;;;;;;464.60;81.10;;;;;;;;;;5082872;28;20164;-69
2021/03/20 05:20:52;;;;;;;463.50;81.57;;;;;;;;;;5084077;28;20533;-69
2021/03/20 05:23:18;;;;;;;462.55;81.68;;;;;;;;;;5082680;28;20164;-69
2021/03/20 05:25:44;;;;;;;463.97;81.50;;;;;;;;;;5082652;28;20191;-68
2021/03/20 05:28:10;;;;;;;462.87;78.67;;;;;;;;;;5082046;28;20449;-68
2021/03/20 05:30:36;;;;;;;461.63;82.10;;;;;;;;;;5083831;28;20883;-69
2021/03/20 05:33:02;;;;;;;462.97;81.73;;;;;;;;;;5082605;28;20477;-69
2021/03/20 05:35:28;;;;;;;461.33;80.85;;;;;;;;;;5083473;28;20402;-69
2021/03/20 05:37:54;;;;;;;461.07;79.47;;;;;;;;;;5084744;28;20179;-69
2021/03/20 05:40:30;;;;;;;461.50;82.07;;;;;;;;;;5084466;28;20492;-70
2021/03/20 05:43:15;;;;;;;457.42;79.18;;;;;;;;;;5093007;28;20167;-69
2021/03/20 05:45:47;;;;;;;462.17;82.05;;;;;;;;;;5093255;28;20202;-70
2021/03/20 05:48:21;;;;;;;459.25;80.18;;;;;;;;;;5084714;28;20276;-68
2021/03/20 05:51:06;;;;;;;462.60;81.97;;;;;;;;;;5093123;28;20574;-68
2021/03/20 05:53:57;;;;;;;460.17;80.30;;;;;;;;;;5093088;28;20217;-68
2021/03/20 05:56:27;;;;;;;459.52;81.72;;;;;;;;;;5071475;28;20547;-69
2021/03/20 05:59:15;;;;;;;455.88;81.00;;;;;;;;;;5084095;28;20254;-68
2021/03/20 06:01:55;;;;;;;457.63;80.68;;;;;;;;;;5084834;28;20176;-68
2021/03/20 06:04:40;;;;;;;456.90;82.18;;;;;;;;;;5084184;28;20626;-69
2021/03/20 06:07:16;;;;;;;452.75;78.38;;;;;;;;;;5092941;28;20202;-69
2021/03/20 06:09:52;;;;;;;459.08;84.07;;;;;;;;;;5084257;28;20277;-69
2021/03/20 06:12:27;;;;;;;458.05;80.93;;;;;;;;;;5085207;28;20536;-68
2021/03/20 06:15:02;;;;;;;457.15;85.55;;;;;;;;;;5082181;28;20850;-69
2021/03/20 06:17:28;;;;;;;453.67;80.82;;;;;;;;;;5064481;28;20195;-71
2021/03/20 06:20:03;;;;;;;454.67;82.20;;;;;;;;;;5083189;28;20174;-69
2021/03/20 06:22:47;;;;;;;448.55;80.68;;;;;;;;;;5084794;28;20981;-68
2021/03/20 06:25:25;;;;;;;449.88;81.32;;;;;;;;;;5084329;28;20176;-68
2021/03/20 06:27:53;;;;;;;451.95;80.00;;;;;;;;;;5084968;28;20207;-70
2021/03/20 06:30:31;;;;;;;450.30;80.45;;;;;;;;;;5081985;28;20164;-70
2021/03/20 06:33:00;;;;;;;451.80;83.47;;;;;;;;;;5079946;28;20165;-70
2021/03/20 06:35:33;;;;;;;451.90;83.50;;;;;;;;;;5085796;28;20215;-70
2021/03/20 06:37:59;;;;;;;452.67;81.30;;;;;;;;;;5085646;28;20167;-69
2021/03/20 06:40:47;;;;;;;450.92;84.13;;;;;;;;;;5081087;28;20251;-69
2021/03/20 06:43:16;;;;;;;452.60;84.82;;;;;;;;;;5055431;28;20184;-69
2021/03/20 06:45:42;;;;;;;454.10;84.25;;;;;;;;;;5080972;28;20192;-69
2021/03/20 06:48:13;;;;;;;458.40;82.85;;;;;;;;;;5082392;28;20779;-70
2021/03/20 06:50:44;;;;;;;457.60;85.10;;;;;;;;;;5081762;28;20705;-70
2021/03/20 06:53:12;;;;;;;454.65;84.30;;;;;;;;;;5088606;28;20174;-70
2021/03/20 06:55:43;;;;;;;456.35;85.13;;;;;;;;;;5085637;28;20192;-70
2021/03/20 06:58:14;;;;;;;456.60;85.13;;;;;;;;;;5090458;28;20190;-69
2021/03/20 07:00:40;;;;;;;454.02;85.68;;;;;;;;;;5091411;28;20220;-69
2021/03/20 07:03:06;;;;;;;454.43;83.00;;;;;;;;;;5082310;28;20176;-69
2021/03/20 07:05:39;;;;;;;455.10;86.17;;;;;;;;;;5084524;28;20441;-69
2021/03/20 07:08:23;;;;;;;453.10;86.45;;;;;;;;;;5089122;28;20967;-68
2021/03/20 07:10:52;;;;;;;450.35;82.13;;;;;;;;;;5083176;28;20171;-69
2021/03/20 07:13:21;;;;;;;452.67;86.18;;;;;;;;;;5066385;28;20171;-68
2021/03/20 07:16:07;;;;;;;451.38;87.28;;;;;;;;;;5061860;28;20221;-67
2021/03/20 07:18:41;;;;;;;451.23;86.55;;;;;;;;;;5084017;28;20179;-68
2021/03/20 07:21:25;;;;;;;447.25;82.10;;;;;;;;;;5061301;28;20176;-69
2021/03/20 07:23:55;;;;;;;450.60;83.35;;;;;;;;;;5081170;28;20195;-68
2021/03/20 07:26:21;;;;;;;451.33;85.65;;;;;;;;;;5081537;28;20191;-68
2021/03/20 07:28:49;;;;;;;450.58;82.22;;;;;;;;;;5083144;28;20207;-68
2021/03/20 07:31:15;;;;;;;452.40;90.25;;;;;;;;;;5078106;28;20568;-69
2021/03/20 07:33:47;;;;;;;454.70;86.65;;;;;;;;;;5080971;28;20168;-69
2021/03/20 07:36:14;;;;;;;450.20;80.40;;;;;;;;;;5084484;28;21213;-68
2021/03/20 07:38:40;;;;;;;449.70;82.32;;;;;;;;;;5089927;28;20181;-69
2021/03/20 07:41:14;;;;;;;454.52;83.70;;;;;;;;;;5085628;28;20175;-69
2021/03/20 07:43:40;;;;;;;449.52;80.97;;;;;;;;;;5081532;28;20165;-68
2021/03/20 07:46:15;;;;;;;451.80;83.68;;;;;;;;;;5079289;28;20192;-69
2021/03/20 07:48:42;;;;;;;459.30;93.70;;;;;;;;;;5080956;28;20347;-68
2021/03/20 07:51:12;;;;;;;454.00;88.30;;;;;;;;;;5069462;28;20168;-70
2021/03/20 07:53:39;;;;;;;455.50;85.32;;;;;;;;;;5081109;28;20159;-69
2021/03/20 07:56:11;;;;;;;456.92;87.57;;;;;;;;;;5081319;28;20200;-70
2021/03/20 07:58:45;;;;;;;457.00;90.82;;;;;;;;;;5062543;28;20174;-70
2021/03/20 08:01:24;;;;;;;459.42;91.50;;;;;;;;;;5079145;28;20178;-70
2021/03/20 08:03:50;;;;;;;461.70;88.22;;;;;;;;;;5079056;28;20524;-70
2021/03/20 08:06:19;;;;;;;457.20;89.97;;;;;;;;;;5080300;28;20207;-70
2021/03/20 08:08:46;;;;;;;455.55;84.78;;;;;;;;;;5081630;28;20265;-69
2021/03/20 08:11:25;;;;;;;459.50;93.78;;;;;;;;;;5082437;28;20168;-70
2021/03/20 08:13:54;;;;;;;453.23;86.35;;;;;;;;;;5080103;28;20176;-69
2021/03/20 08:16:20;;;;;;;461.88;90.72;;;;;;;;;;5076444;28;20666;-70
2021/03/20 08:18:48;;;;;;;455.60;85.40;;;;;;;;;;5085492;28;20822;-69
2021/03/20 08:21:13;;;;;;;457.33;90.43;;;;;;;;;;5079980;28;20255;-70
2021/03/20 08:23:45;;;;;;;456.83;91.63;;;;;;;;;;5084747;28;20740;-70
2021/03/20 08:26:19;;;;;;;458.85;92.57;;;;;;;;;;5061943;28;20425;-70
2021/03/20 08:28:51;;;;;;;457.08;91.18;;;;;;;;;;5085157;28;20836;-70
2021/03/20 08:31:27;;;;;;;458.98;87.88;;;;;;;;;;5084768;28;20228;-70
2021/03/20 08:34:02;;;;;;;464.30;93.88;;;;;;;;;;5082981;28;20188;-70
2021/03/20 08:36:47;;;;;;;467.25;89.15;;;;;;;;;;5076090;28;20678;-70
2021/03/20 08:39:22;;;;;;;474.27;98.97;;;;;;;;;;5070716;28;20202;-69
2021/03/20 08:41:54;;;;;;;470.77;96.65;;;;;;;;;;5070331;28;20168;-70
2021/03/20 08:44:31;;;;;;;495.85;95.22;;;;;;;;;;5070578;28;20166;-69
2021/03/20 08:47:02;;;;;;;469.80;106.80;;;;;;;;;;5084929;28;20220;-71
2021/03/20 08:49:43;;;;;;;463.48;92.07;;;;;;;;;;5082210;28;20198;-71
2021/03/20 08:52:26;;;;;;;464.83;101.03;;;;;;;;;;5076124;28;20183;-68
2021/03/20 08:55:02;;;;;;;460.60;91.85;;;;;;;;;;5076842;28;20713;-69
2021/03/20 08:57:28;;;;;;;460.40;94.15;;;;;;;;;;5060458;28;20189;-70
2021/03/20 08:59:55;;;;;;;467.33;100.00;;;;;;;;;;5077948;28;20182;-69
2021/03/20 09:02:24;;;;;;;466.98;96.53;;;;;;;;;;5080866;28;20408;-69
2021/03/20 09:04:51;;;;;;;465.42;102.05;;;;;;;;;;5081223;28;20205;-69
2021/03/20 09:07:22;;;;;;;463.00;91.95;;;;;;;;;;5080830;28;20221;-69
2021/03/20 09:09:51;;;;;;;467.27;98.18;;;;;;;;;;5066754;28;20284;-68
2021/03/20 09:12:20;;;;;;;468.50;106.85;;;;;;;;;;5077473;28;20167;-69
2021/03/20 09:14:47;;;;;;;466.55;98.95;;;;;;;;;;5086317;28;20184;-70
2021/03/20 09:17:15;;;;;;;470.98;99.80;;;;;;;;;;5070012;28;20197;-69
2021/03/20 09:19:48;;;;;;;464.42;98.97;;;;;;;;;;5082774;28;20716;-69
2021/03/20 09:22:16;;;;;;;466.42;96.70;;;;;;;;;;5079630;28;20163;-70
2021/03/20 09:24:51;;;;;;;473.05;109.63;;;;;;;;;;5086762;28;20257;-69
2021/03/20 09:27:37;;;;;;;471.23;107.95;;;;;;;;;;5082956;28;20197;-69
2021/03/20 09:30:14;;;;;;;462.80;98.82;;;;;;;;;;5084177;28;20646;-68
2021/03/20 09:32:48;;;;;;;470.67;105.18;;;;;;;;;;5073990;28;20177;-70
2021/03/20 09:35:36;;;;;;;475.25;113.63;;;;;;;;;;5088283;28;20165;-70
2021/03/20 09:38:03;;;;;;;487.95;109.47;;;;;;;;;;5084875;28;20306;-69
2021/03/20 09:40:42;;;;;;;477.95;101.68;;;;;;;;;;5086563;28;20179;-69
2021/03/20 09:43:23;;;;;;;468.95;106.70;;;;;;;;;;5084931;28;20192;-70
2021/03/20 09:46:09;;;;;;;455.05;95.65;;;;;;;;;;5077806;28;20248;-69
2021/03/20 09:48:41;;;;;;;477.20;110.50;;;;;;;;;;5085162;28;20198;-70
2021/03/20 09:51:30;;;;;;;475.42;103.75;;;;;;;;;;5092771;28;20162;-69
2021/03/20 09:53:56;;;;;;;478.30;106.03;;;;;;;;;;5092837;28;20198;-69
2021/03/20 09:56:25;;;;;;;477.52;106.82;;;;;;;;;;5092909;28;20183;-69
2021/03/20 09:58:52;;;;;;;475.20;103.82;;;;;;;;;;5093080;28;20163;-69
2021/03/20 10:01:18;;;;;;;475.08;105.13;;;;;;;;;;5084559;28;20189;-69
2021/03/20 10:03:52;;;;;;;475.80;102.57;;;;;;;;;;5084828;28;20202;-69
2021/03/20 10:06:32;;;;;;;475.52;101.72;;;;;;;;;;5086065;28;20190;-69
2021/03/20 10:08:58;;;;;;;476.65;107.20;;;;;;;;;;5090608;28;20186;-68
2021/03/20 10:11:50;;;;;;;474.87;102.43;;;;;;;;;;5092163;28;20676;-71
2021/03/20 10:14:23;;;;;;;473.58;102.85;;;;;;;;;;5064945;28;20424;-72
2021/03/20 10:17:08;;;;;;;473.60;101.55;;;;;;;;;;5071814;28;20209;-72
2021/03/20 10:19:35;;;;;;;481.17;110.00;;;;;;;;;;5066507;28;20183;-69
2021/03/20 10:22:07;;;;;;;473.75;117.05;;;;;;;;;;5068953;28;20174;-70
2021/03/20 10:24:35;;;;;;;466.30;102.40;;;;;;;;;;5080623;28;20174;-69
2021/03/20 10:27:08;;;;;;;465.00;101.88;;;;;;;;;;5090207;28;20186;-69
2021/03/20 10:29:36;;;;;;;471.27;105.55;;;;;;;;;;5079234;28;20200;-69
2021/03/20 10:32:05;;;;;;;468.08;107.70;;;;;;;;;;5079777;28;20182;-70
2021/03/20 10:34:43;;;;;;;471.88;107.53;;;;;;;;;;5083782;28;20177;-70
2021/03/20 10:37:10;;;;;;;471.75;104.78;;;;;;;;;;5074852;28;20708;-70
2021/03/20 10:39:41;;;;;;;474.17;112.97;;;;;;;;;;5085419;28;20178;-70
2021/03/20 10:42:07;;;;;;;471.88;109.35;;;;;;;;;;5090424;28;20194;-70
2021/03/20 10:44:38;;;;;;;469.97;109.33;;;;;;;;;;5085238;28;20178;-70
2021/03/20 10:47:04;;;;;;;473.63;108.93;;;;;;;;;;5091994;28;20429;-71
2021/03/20 10:49:34;;;;;;;474.43;109.30;;;;;;;;;;5084211;28;20569;-72
2021/03/20 10:52:02;;;;;;;478.13;114.70;;;;;;;;;;5083254;28;20416;-71
2021/03/20 10:54:40;;;;;;;475.85;108.32;;;;;;;;;;5072998;28;20250;-70
2021/03/20 10:57:09;;;;;;;481.25;122.68;;;;;;;;;;5083102;28;20197;-71
2021/03/20 10:59:36;;;;;;;478.90;113.75;;;;;;;;;;5091711;28;20556;-71
2021/03/20 11:02:21;;;;;;;480.65;129.63;;;;;;;;;;5069840;28;20188;-70
2021/03/20 11:04:47;;;;;;;481.48;116.05;;;;;;;;;;5086978;28;20175;-69
2021/03/20 11:07:15;;;;;;;477.95;116.95;;;;;;;;;;5079415;28;20223;-70
2021/03/20 11:09:41;;;;;;;470.67;114.63;;;;;;;;;;5085493;28;20195;-69
2021/03/20 11:12:11;;;;;;;466.30;109.60;;;;;;;;;;5082394;28;20178;-70
2021/03/20 11:14:54;;;;;;;470.58;116.35;;;;;;;;;;5091718;28;20495;-70
2021/03/20 11:17:22;;;;;;;472.27;114.88;;;;;;;;;;5091953;28;20269;-69
2021/03/20 11:19:48;;;;;;;474.42;117.22;;;;;;;;;;5091928;28;20634;-69
2021/03/20 11:22:25;;;;;;;484.13;129.50;;;;;;;;;;5091392;28;20175;-71
2021/03/20 11:24:54;;;;;;;474.88;118.60;;;;;;;;;;5091547;28;20165;-71
2021/03/20 11:27:26;;;;;;;479.25;127.47;;;;;;;;;;5074077;28;20279;-71
2021/03/20 11:29:53;;;;;;;478.58;131.75;;;;;;;;;;5071310;28;20211;-71
2021/03/20 11:32:28;;;;;;;475.80;126.97;;;;;;;;;;5056840;28;20595;-71
2021/03/20 11:35:07;;;;;;;482.38;141.30;;;;;;;;;;5081000;28;20184;-70
2021/03/20 11:37:33;;;;;;;479.38;134.07;;;;;;;;;;5083433;28;20205;-70
2021/03/20 11:40:00;;;;;;;480.98;140.48;;;;;;;;;;5087039;28;20703;-71
2021/03/20 11:42:36;;;;;;;478.95;134.82;;;;;;;;;;5086530;28;20165;-71
2021/03/20 11:45:05;;;;;;;476.48;132.73;;;;;;;;;;5075534;28;20708;-70
2021/03/20 11:47:32;;;;;;;487.05;150.30;;;;;;;;;;5090837;28;20659;-69
2021/03/20 11:49:59;;;;;;;478.95;141.68;;;;;;;;;;5091257;28;20737;-71
2021/03/20 11:52:45;;;;;;;472.67;121.93;;;;;;;;;;5090842;28;20166;-70
2021/03/20 11:55:17;;;;;;;483.95;149.25;;;;;;;;;;5087604;28;20173;-70
2021/03/20 11:57:44;;;;;;;480.58;130.82;;;;;;;;;;5090954;28;20627;-69
2021/03/20 12:00:28;;;;;;;475.40;131.48;;;;;;;;;;5090959;28;20192;-69
2021/03/20 12:02:55;;;;;;;476.58;125.05;;;;;;;;;;5090872;28;20166;-69
2021/03/20 12:05:23;;;;;;;475.50;122.93;;;;;;;;;;5090942;28;20166;-71
2021/03/20 12:07:49;;;;;;;468.70;112.68;;;;;;;;;;5090888;28;20242;-69
2021/03/20 12:10:19;;;;;;;474.77;123.25;;;;;;;;;;5072174;28;20256;-71
2021/03/20 12:12:49;;;;;;;469.08;117.15;;;;;;;;;;5070642;28;20227;-70
2021/03/20 12:15:23;;;;;;;466.65;117.53;;;;;;;;;;5070666;28;20195;-71
2021/03/20 12:17:52;;;;;;;469.20;119.78;;;;;;;;;;5071914;28;20704;-70
2021/03/20 12:20:33;;;;;;;471.48;121.78;;;;;;;;;;5087599;28;20179;-70
2021/03/20 12:23:11;;;;;;;472.25;123.72;;;;;;;;;;5083570;28;20600;-71
2021/03/20 12:25:44;;;;;;;467.48;114.97;;;;;;;;;;5080039;28;20192;-70
2021/03/20 12:28:24;;;;;;;465.48;118.00;;;;;;;;;;5077931;28;20188;-71
2021/03/20 12:31:26;;;;;;;466.83;116.30;;;;;;;;;;5089894;28;20163;-69
2021/03/20 12:33:52;;;;;;;462.60;111.60;;;;;;;;;;5028472;28;20407;-70
2021/03/20 12:36:26;;;;;;;465.67;112.50;;;;;;;;;;5067687;28;20730;-71
2021/03/20 12:38:53;;;;;;;468.17;115.90;;;;;;;;;;5070505;28;20399;-72
2021/03/20 12:41:20;;;;;;;464.02;112.47;;;;;;;;;;5070541;28;20219;-69
2021/03/20 12:44:02;;;;;;;467.20;112.97;;;;;;;;;;5070285;28;20176;-69
2021/03/20 12:46:28;;;;;;;465.77;113.32;;;;;;;;;;5078434;28;20224;-69
2021/03/20 12:48:54;;;;;;;465.00;115.37;;;;;;;;;;5070273;28;20258;-70
2021/03/20 12:51:22;;;;;;;465.90;115.43;;;;;;;;;;5072520;28;20408;-70
2021/03/20 12:53:48;;;;;;;468.60;124.43;;;;;;;;;;5073482;28;20396;-69
2021/03/20 12:56:14;;;;;;;470.80;118.13;;;;;;;;;;5074209;28;20275;-76
2021/03/20 12:58:40;;;;;;;467.90;116.10;;;;;;;;;;5074175;28;20970;-71
2021/03/20 13:01:06;;;;;;;467.90;113.70;;;;;;;;;;5073517;28;20776;-71
2021/03/20 13:03:33;;;;;;;464.88;110.82;;;;;;;;;;5056105;28;20169;-72
2021/03/20 13:05:59;;;;;;;463.85;108.30;;;;;;;;;;5055706;28;20193;-71
2021/03/20 13:08:26;;;;;;;462.95;112.15;;;;;;;;;;5073878;28;20659;-72
2021/03/20 13:10:52;;;;;;;462.80;113.53;;;;;;;;;;5073731;28;20169;-71
2021/03/20 13:13:18;;;;;;;457.65;112.60;;;;;;;;;;5073646;28;20168;-71
2021/03/20 13:15:46;;;;;;;457.50;106.77;;;;;;;;;;5056097;28;20561;-71
2021/03/20 13:18:12;;;;;;;465.77;113.55;;;;;;;;;;5073794;28;20399;-70
2021/03/20 13:20:39;;;;;;;474.52;124.70;;;;;;;;;;5073725;28;20567;-71
2021/03/20 13:23:05;;;;;;;460.42;105.70;;;;;;;;;;5073273;28;20206;-71
2021/03/20 13:25:32;;;;;;;463.88;108.50;;;;;;;;;;5076052;28;20204;-70
2021/03/20 13:27:58;;;;;;;463.73;114.95;;;;;;;;;;5093590;28;20650;-71
2021/03/20 13:30:26;;;;;;;457.33;110.07;;;;;;;;;;5093856;28;20178;-71
2021/03/20 13:32:52;;;;;;;464.77;110.95;;;;;;;;;;5091814;28;20187;-70
2021/03/20 13:35:19;;;;;;;460.13;104.35;;;;;;;;;;5087680;28;20215;-70
2021/03/20 13:37:45;;;;;;;467.40;118.97;;;;;;;;;;5088962;22;20264;-69
2021/03/20 13:40:11;;;;;;;461.40;107.17;;;;;;;;;;5012090;28;20265;-68
2021/03/20 13:42:37;;;;;;;456.17;98.22;;;;;;;;;;5013327;28;20484;-68
2021/03/20 13:45:06;;;;;;;465.33;113.88;;;;;;;;;;4996227;28;20265;-68
2021/03/20 13:47:32;;;;;;;462.38;112.35;;;;;;;;;;5015935;28;20244;-73
2021/03/20 13:49:58;;;;;;;463.23;110.03;;;;;;;;;;5016621;28;20869;-75
2021/03/20 13:52:24;;;;;;;461.63;109.88;;;;;;;;;;5017643;28;20245;-69
2021/03/20 13:54:50;;;;;;;460.05;107.90;;;;;;;;;;5019815;28;20261;-67
2021/03/20 13:57:15;;;;;;;462.63;109.60;;;;;;;;;;5007902;28;20616;-67
2021/03/20 13:59:41;;;;;;;460.40;106.47;;;;;;;;;;5019231;28;20219;-65
2021/03/20 14:02:08;;;;;;;462.17;108.37;;;;;;;;;;5011433;28;20174;-66
2021/03/20 14:04:37;;;;;;;465.45;115.43;;;;;;;;;;5015283;28;20510;-65
2021/03/20 14:07:10;;;;;;;463.05;110.35;;;;;;;;;;5020796;28;20181;-67
2021/03/20 14:09:36;;;;;;;456.80;100.00;;;;;;;;;;5011171;28;20280;-68
2021/03/20 14:12:03;;;;;;;464.08;112.15;;;;;;;;;;5013705;28;20185;-69
2021/03/20 14:14:29;;;;;;;462.20;112.18;;;;;;;;;;5020067;28;20239;-68
2021/03/20 14:16:54;;;;;;;460.10;100.63;;;;;;;;;;4994564;28;20167;-68
2021/03/20 14:19:20;;;;;;;464.90;111.67;;;;;;;;;;5012799;28;20471;-69
2021/03/20 14:21:46;;;;;;;464.40;108.67;;;;;;;;;;5013060;28;20398;-67
2021/03/20 14:24:12;;;;;;;468.63;112.43;;;;;;;;;;5013226;28;20436;-67
2021/03/20 14:26:38;;;;;;;470.47;119.17;;;;;;;;;;5012165;28;20409;-67